createdAt,value
2017-06-22T00:00:19.133Z,981.4
2017-06-22T00:01:21.749Z,981.4
2017-06-22T00:02:24.381Z,981.4
2017-06-22T00:03:26.966Z,981.4
2017-06-22T00:04:29.573Z,981.4
2017-06-22T00:05:32.177Z,981.4
2017-06-22T00:06:34.691Z,981.2
2017-06-22T00:07:37.249Z,981.4
2017-06-22T00:08:39.831Z,981.4
2017-06-22T00:09:42.644Z,981.5
2017-06-22T00:10:45.235Z,981.5
2017-06-22T00:11:48.364Z,981.4
2017-06-22T00:12:50.980Z,981.4
2017-06-22T00:13:53.559Z,981.4
2017-06-22T00:14:56.835Z,981.4
2017-06-22T00:15:59.650Z,981.4
2017-06-22T00:17:02.569Z,981.4
2017-06-22T00:18:05.283Z,981.4
2017-06-22T00:19:07.831Z,981.3
2017-06-22T00:20:10.520Z,981.3
2017-06-22T00:21:13.921Z,981.4
2017-06-22T00:22:16.575Z,981.3
2017-06-22T00:23:19.173Z,981.3
2017-06-22T00:24:21.985Z,981.3
2017-06-22T00:25:24.612Z,981.3
2017-06-22T00:26:27.229Z,981.3
2017-06-22T00:27:29.901Z,981.2
2017-06-22T00:28:32.536Z,981.2
2017-06-22T00:29:35.274Z,981.2
2017-06-22T00:30:37.853Z,981.2
2017-06-22T00:31:40.814Z,981.2
2017-06-22T00:32:43.398Z,981.2
2017-06-22T00:33:46.006Z,981.1
2017-06-22T00:34:48.826Z,980.8
2017-06-22T00:35:51.480Z,981.1
2017-06-22T00:36:54.772Z,981.1
2017-06-22T00:37:57.419Z,981.1
2017-06-22T00:39:00.697Z,981
2017-06-22T00:40:03.397Z,981
2017-06-22T00:41:06.157Z,981
2017-06-22T00:42:09.101Z,981
2017-06-22T00:43:11.639Z,980.6
2017-06-22T00:44:14.284Z,980.9
2017-06-22T00:45:16.856Z,981
2017-06-22T00:46:19.472Z,980.9
2017-06-22T00:47:22.076Z,980.9
2017-06-22T00:48:24.689Z,980.9
2017-06-22T00:49:27.213Z,980.9
2017-06-22T00:50:29.806Z,980.9
2017-06-22T00:51:32.479Z,980.8
2017-06-22T00:52:35.016Z,980.8
2017-06-22T00:53:37.618Z,980.8
2017-06-22T00:54:40.332Z,980.8
2017-06-22T00:55:43.562Z,980.7
2017-06-22T00:56:46.207Z,980.7
2017-06-22T00:57:48.786Z,980.7
2017-06-22T00:58:51.369Z,980.8
2017-06-22T00:59:54.429Z,980.7
2017-06-22T01:00:57.073Z,980.7
2017-06-22T01:01:59.697Z,980.6
2017-06-22T01:03:02.316Z,980.6
2017-06-22T01:04:04.921Z,980.6
2017-06-22T01:05:07.519Z,980.5
2017-06-22T01:06:10.200Z,980.5
2017-06-22T01:07:12.793Z,980.6
2017-06-22T01:08:15.388Z,980.5
2017-06-22T01:09:17.999Z,980.5
2017-06-22T01:10:20.571Z,980.4
2017-06-22T01:11:23.258Z,980.4
2017-06-22T01:12:25.857Z,980.3
2017-06-22T01:13:28.476Z,980.3
2017-06-22T01:14:31.032Z,980.3
2017-06-22T01:15:33.688Z,980.4
2017-06-22T01:16:36.378Z,980.4
2017-06-22T01:17:38.987Z,980.3
2017-06-22T01:18:41.654Z,980.3
2017-06-22T01:19:44.199Z,980.3
2017-06-22T01:20:46.818Z,979.7
2017-06-22T01:21:49.443Z,980.3
2017-06-22T01:22:52.023Z,980.3
2017-06-22T01:23:54.563Z,980.4
2017-06-22T01:24:57.152Z,980.4
2017-06-22T01:26:00.150Z,980.4
2017-06-22T01:27:02.750Z,980.4
2017-06-22T01:28:05.413Z,980.4
2017-06-22T01:29:08.053Z,980.5
2017-06-22T01:30:10.715Z,980.4
2017-06-22T01:31:13.308Z,980.4
2017-06-22T01:32:15.920Z,980.4
2017-06-22T01:33:18.554Z,980.4
2017-06-22T01:34:21.210Z,980.4
2017-06-22T01:35:23.760Z,980.4
2017-06-22T01:36:26.416Z,980.4
2017-06-22T01:37:28.950Z,980.4
2017-06-22T01:38:31.566Z,980.4
2017-06-22T01:39:34.139Z,980.4
2017-06-22T01:40:36.776Z,980.4
2017-06-22T01:41:39.443Z,980.4
2017-06-22T01:42:42.035Z,980.4
2017-06-22T01:43:44.644Z,980.4
2017-06-22T01:44:47.215Z,980.4
2017-06-22T01:45:49.783Z,980.4
2017-06-22T01:46:52.338Z,980.4
2017-06-22T01:47:54.907Z,980.3
2017-06-22T01:48:57.440Z,980.4
2017-06-22T01:50:00.051Z,980.4
2017-06-22T01:51:02.696Z,980.4
2017-06-22T01:52:05.315Z,980.3
2017-06-22T01:53:07.916Z,980.4
2017-06-22T01:54:10.473Z,980.4
2017-06-22T01:55:13.090Z,980.3
2017-06-22T01:56:15.610Z,980.3
2017-06-22T01:57:18.211Z,980.3
2017-06-22T01:58:20.854Z,980.3
2017-06-22T01:59:23.409Z,980.3
2017-06-22T02:00:25.951Z,980.3
2017-06-22T02:01:28.516Z,980.3
2017-06-22T02:02:31.115Z,980.3
2017-06-22T02:03:33.663Z,980.3
2017-06-22T02:04:36.187Z,980.4
2017-06-22T02:05:38.744Z,980.4
2017-06-22T02:06:41.663Z,980.4
2017-06-22T02:07:44.250Z,980.4
2017-06-22T02:08:46.807Z,980.3
2017-06-22T02:09:49.672Z,980.3
2017-06-22T02:10:52.557Z,980.3
2017-06-22T02:11:55.093Z,980.3
2017-06-22T02:12:57.677Z,980.3
2017-06-22T02:14:00.427Z,980.4
2017-06-22T02:15:03.049Z,980.3
2017-06-22T02:16:05.805Z,980.4
2017-06-22T02:17:08.439Z,980.3
2017-06-22T02:18:11.221Z,980.4
2017-06-22T02:19:13.777Z,980.3
2017-06-22T02:20:16.309Z,980.3
2017-06-22T02:21:18.915Z,980.3
2017-06-22T02:22:21.537Z,980.2
2017-06-22T02:23:24.134Z,980.3
2017-06-22T02:24:26.743Z,980.3
2017-06-22T02:25:29.328Z,980.3
2017-06-22T02:26:31.954Z,980.3
2017-06-22T02:27:34.479Z,980.3
2017-06-22T02:28:37.049Z,980.3
2017-06-22T02:29:39.661Z,980.3
2017-06-22T02:30:42.297Z,980.3
2017-06-22T02:31:45.279Z,980.3
2017-06-22T02:32:48.446Z,980.3
2017-06-22T02:33:51.028Z,980.2
2017-06-22T02:34:53.605Z,980.3
2017-06-22T02:35:56.149Z,980.3
2017-06-22T02:36:58.784Z,980.3
2017-06-22T02:38:01.501Z,980.3
2017-06-22T02:39:04.126Z,980.3
2017-06-22T02:40:06.635Z,980.2
2017-06-22T02:41:09.204Z,980.3
2017-06-22T02:42:11.759Z,980.3
2017-06-22T02:43:14.337Z,980.3
2017-06-22T02:44:16.886Z,980.3
2017-06-22T02:45:19.545Z,980.3
2017-06-22T02:46:22.098Z,980.3
2017-06-22T02:47:24.677Z,980.3
2017-06-22T02:48:27.357Z,980.3
2017-06-22T02:49:29.893Z,980.3
2017-06-22T02:50:32.445Z,980.3
2017-06-22T02:51:35.086Z,980.3
2017-06-22T02:52:37.699Z,980.3
2017-06-22T02:53:40.305Z,980.3
2017-06-22T02:54:42.890Z,980.3
2017-06-22T02:55:45.467Z,980.3
2017-06-22T02:56:48.221Z,980.3
2017-06-22T02:57:51.119Z,980.3
2017-06-22T02:58:53.690Z,980.3
2017-06-22T02:59:56.253Z,980.3
2017-06-22T03:00:58.858Z,980.3
2017-06-22T03:02:01.645Z,980.3
2017-06-22T03:03:04.201Z,980.2
2017-06-22T03:04:06.880Z,980.2
2017-06-22T03:05:09.448Z,980.3
2017-06-22T03:06:12.059Z,980.3
2017-06-22T03:07:14.595Z,980.2
2017-06-22T03:08:17.261Z,980.2
2017-06-22T03:09:19.855Z,980.2
2017-06-22T03:10:22.465Z,980.2
2017-06-22T03:11:25.041Z,980.2
2017-06-22T03:12:27.657Z,980.3
2017-06-22T03:13:30.287Z,980.3
2017-06-22T03:14:32.913Z,980.3
2017-06-22T03:15:35.732Z,980.3
2017-06-22T03:16:38.342Z,980.3
2017-06-22T03:17:40.940Z,980.3
2017-06-22T03:18:43.472Z,980.2
2017-06-22T03:19:47.696Z,980.3
2017-06-22T03:20:50.562Z,980.2
2017-06-22T03:21:53.730Z,980.2
2017-06-22T03:22:56.444Z,980.2
2017-06-22T03:23:58.997Z,980.2
2017-06-22T03:25:01.685Z,980.3
2017-06-22T03:26:04.269Z,980.3
2017-06-22T03:27:07.424Z,980.2
2017-06-22T03:28:10.052Z,980.2
2017-06-22T03:29:12.597Z,980.1
2017-06-22T03:30:15.151Z,980.1
2017-06-22T03:31:17.740Z,980.2
2017-06-22T03:32:20.345Z,980.2
2017-06-22T03:33:22.965Z,980.1
2017-06-22T03:34:25.542Z,980.2
2017-06-22T03:35:28.153Z,980.2
2017-06-22T03:36:32.550Z,980.1
2017-06-22T03:37:35.148Z,980.2
2017-06-22T03:38:37.715Z,980.1
2017-06-22T03:39:40.336Z,980.1
2017-06-22T03:40:42.874Z,980.1
2017-06-22T03:41:45.486Z,980
2017-06-22T03:42:48.076Z,980.1
2017-06-22T03:43:50.637Z,980
2017-06-22T03:44:53.199Z,980.1
2017-06-22T03:45:55.764Z,980.1
2017-06-22T03:46:58.368Z,980
2017-06-22T03:48:00.973Z,980.1
2017-06-22T03:49:03.563Z,980.1
2017-06-22T03:50:06.233Z,980.1
2017-06-22T03:51:08.774Z,980.1
2017-06-22T03:52:11.507Z,980
2017-06-22T03:53:14.076Z,980
2017-06-22T03:54:16.713Z,980
2017-06-22T03:55:19.287Z,980
2017-06-22T03:56:21.917Z,980
2017-06-22T03:57:24.459Z,980
2017-06-22T03:58:27.029Z,979.9
2017-06-22T03:59:29.680Z,979.9
2017-06-22T04:00:32.274Z,979.9
2017-06-22T04:01:34.857Z,979.9
2017-06-22T04:02:38.240Z,979.9
2017-06-22T04:03:40.806Z,979.9
2017-06-22T04:04:43.384Z,979.9
2017-06-22T04:05:45.945Z,979.9
2017-06-22T04:06:48.530Z,979.9
2017-06-22T04:07:51.124Z,979.8
2017-06-22T04:08:53.701Z,979.9
2017-06-22T04:09:56.278Z,979.8
2017-06-22T04:10:58.875Z,979.8
2017-06-22T04:12:01.604Z,979.8
2017-06-22T04:13:04.213Z,979.9
2017-06-22T04:14:06.803Z,979.9
2017-06-22T04:15:09.330Z,979.9
2017-06-22T04:16:12.038Z,979.9
2017-06-22T04:17:14.583Z,979.9
2017-06-22T04:18:17.119Z,979.9
2017-06-22T04:19:19.793Z,979.9
2017-06-22T04:20:22.300Z,979.9
2017-06-22T04:21:24.959Z,979.9
2017-06-22T04:22:27.555Z,979.9
2017-06-22T04:23:30.302Z,980
2017-06-22T04:24:32.946Z,979.9
2017-06-22T04:25:35.625Z,980
2017-06-22T04:26:38.221Z,979.9
2017-06-22T04:27:40.842Z,979.8
2017-06-22T04:28:43.620Z,981.1
2017-06-22T04:29:46.272Z,979.9
2017-06-22T04:30:48.894Z,979.9
2017-06-22T04:31:51.537Z,980
2017-06-22T04:32:54.119Z,979.9
2017-06-22T04:33:56.790Z,979.9
2017-06-22T04:34:59.355Z,979.9
2017-06-22T04:36:01.971Z,979.9
2017-06-22T04:37:04.511Z,979.9
2017-06-22T04:38:07.092Z,979.9
2017-06-22T04:39:09.861Z,979.8
2017-06-22T04:40:12.412Z,979.8
2017-06-22T04:41:15.018Z,979.8
2017-06-22T04:42:17.691Z,979.8
2017-06-22T04:43:20.436Z,979.9
2017-06-22T04:44:23.030Z,979.9
2017-06-22T04:45:25.596Z,979.9
2017-06-22T04:46:28.252Z,979.9
2017-06-22T04:47:30.990Z,979.9
2017-06-22T04:48:33.515Z,979.9
2017-06-22T04:49:36.121Z,979.9
2017-06-22T04:50:38.743Z,979.8
2017-06-22T04:51:41.422Z,979.9
2017-06-22T04:52:44.076Z,979.9
2017-06-22T04:53:46.820Z,979.9
2017-06-22T04:54:49.403Z,979.9
2017-06-22T04:55:52.000Z,979.9
2017-06-22T04:56:54.581Z,979.9
2017-06-22T04:57:57.138Z,979.9
2017-06-22T04:58:59.688Z,979.9
2017-06-22T05:00:02.387Z,979.9
2017-06-22T05:01:04.973Z,979.9
2017-06-22T05:02:07.553Z,979.8
2017-06-22T05:03:10.926Z,979.8
2017-06-22T05:04:13.729Z,979.8
2017-06-22T05:05:16.313Z,979.9
2017-06-22T05:06:18.850Z,979.8
2017-06-22T05:07:21.562Z,979.8
2017-06-22T05:08:24.182Z,979.8
2017-06-22T05:09:27.908Z,979.8
2017-06-22T05:10:32.456Z,979.8
2017-06-22T05:11:35.093Z,979.8
2017-06-22T05:12:37.707Z,979.8
2017-06-22T05:13:40.843Z,979.7
2017-06-22T05:14:43.497Z,979.8
2017-06-22T05:15:46.076Z,979.7
2017-06-22T05:16:48.696Z,979.8
2017-06-22T05:17:51.417Z,979.7
2017-06-22T05:18:54.097Z,979.7
2017-06-22T05:19:56.756Z,979.7
2017-06-22T05:20:59.434Z,979.7
2017-06-22T05:22:02.189Z,979.7
2017-06-22T05:23:04.776Z,979.6
2017-06-22T05:24:07.858Z,979.6
2017-06-22T05:25:12.709Z,979.6
2017-06-22T05:26:15.356Z,979.6
2017-06-22T05:27:17.953Z,979.6
2017-06-22T05:28:20.629Z,979.5
2017-06-22T05:29:23.359Z,979.6
2017-06-22T05:30:25.998Z,979.5
2017-06-22T05:31:28.707Z,979.5
2017-06-22T05:32:31.441Z,979.5
2017-06-22T05:33:34.066Z,979.5
2017-06-22T05:34:36.692Z,979.5
2017-06-22T05:35:39.271Z,979.5
2017-06-22T05:36:41.973Z,979.4
2017-06-22T05:37:44.548Z,979.4
2017-06-22T05:39:59.105Z,979.4
2017-06-22T05:41:01.820Z,979.3
2017-06-22T05:42:04.454Z,979.3
2017-06-22T05:43:07.113Z,979.3
2017-06-22T05:44:09.725Z,979.2
2017-06-22T05:45:12.429Z,979.2
2017-06-22T05:46:15.313Z,979.2
2017-06-22T05:47:17.938Z,979.1
2017-06-22T05:48:21.228Z,979.1
2017-06-22T05:49:23.903Z,979.1
2017-06-22T05:50:26.511Z,979.1
2017-06-22T05:51:29.192Z,979
2017-06-22T05:52:31.913Z,978.9
2017-06-22T05:53:34.500Z,979.4
2017-06-22T05:54:38.312Z,979.8
2017-06-22T05:55:41.943Z,979.2
2017-06-22T05:56:48.042Z,978.8
2017-06-22T05:57:50.727Z,978.8
2017-06-22T05:58:53.355Z,978.8
2017-06-22T05:59:56.059Z,978.8
2017-06-22T06:00:58.709Z,978.8
2017-06-22T06:02:01.502Z,978.8
2017-06-22T06:03:04.197Z,978.8
2017-06-22T06:04:07.166Z,978.7
2017-06-22T06:05:09.839Z,978.7
2017-06-22T06:06:12.564Z,978.7
2017-06-22T06:07:15.288Z,978.7
2017-06-22T06:08:17.933Z,978.7
2017-06-22T06:09:20.734Z,978.7
2017-06-22T06:10:23.396Z,978.7
2017-06-22T06:11:26.052Z,978.6
2017-06-22T06:12:28.692Z,978.6
2017-06-22T06:13:31.492Z,978.4
2017-06-22T06:14:34.163Z,978.6
2017-06-22T06:15:37.090Z,978.7
2017-06-22T06:16:39.878Z,978.6
2017-06-22T06:17:42.766Z,978.6
2017-06-22T06:18:45.553Z,978.6
2017-06-22T06:19:48.177Z,978.6
2017-06-22T06:20:50.879Z,978.6
2017-06-22T06:21:53.448Z,978.6
2017-06-22T06:22:56.084Z,978.5
2017-06-22T06:23:58.840Z,978.6
2017-06-22T06:25:01.682Z,978.6
2017-06-22T06:26:04.426Z,978.6
2017-06-22T06:27:07.160Z,978.5
2017-06-22T06:28:09.854Z,978.5
2017-06-22T06:29:13.144Z,978.5
2017-06-22T06:30:16.269Z,978.5
2017-06-22T06:31:19.050Z,978.5
2017-06-22T06:32:21.803Z,978.5
2017-06-22T06:33:24.548Z,978.5
2017-06-22T06:34:27.243Z,978.5
2017-06-22T06:35:29.916Z,978.5
2017-06-22T06:36:32.844Z,978.4
2017-06-22T06:37:36.121Z,978.2
2017-06-22T06:38:39.826Z,978.3
2017-06-22T06:39:43.376Z,978.4
2017-06-22T06:40:49.001Z,978.4
2017-06-22T06:42:00.129Z,978.2
2017-06-22T06:43:03.272Z,978.3
2017-06-22T06:45:18.432Z,978.3
2017-06-22T06:46:21.278Z,978.3
2017-06-22T06:47:24.381Z,978.3
2017-06-22T06:48:27.150Z,978.4
2017-06-22T06:49:30.111Z,978.1
2017-06-22T06:50:33.258Z,978.4
2017-06-22T06:51:36.460Z,978.4
2017-06-22T06:52:39.508Z,978.4
2017-06-22T06:53:43.389Z,978.5
2017-06-22T06:54:46.893Z,978.2
2017-06-22T06:55:49.842Z,978.3
2017-06-22T06:56:52.789Z,978.4
2017-06-22T06:57:55.427Z,978.4
2017-06-22T06:58:58.011Z,978.5
2017-06-22T07:00:00.798Z,978.5
2017-06-22T07:01:03.547Z,978.4
2017-06-22T07:02:06.300Z,978.3
2017-06-22T07:03:08.985Z,978.5
2017-06-22T07:04:11.745Z,978.4
2017-06-22T07:05:14.364Z,978.4
2017-06-22T07:06:16.981Z,978.3
2017-06-22T07:07:19.537Z,978.1
2017-06-22T07:08:22.275Z,978.3
2017-06-22T07:09:24.913Z,978.5
2017-06-22T07:10:27.497Z,978.3
2017-06-22T07:11:30.171Z,978.4
2017-06-22T07:12:32.740Z,978.5
2017-06-22T07:13:35.556Z,978.3
2017-06-22T07:14:38.256Z,978.3
2017-06-22T07:15:41.073Z,978.3
2017-06-22T07:16:43.647Z,978.3
2017-06-22T07:17:46.276Z,978.3
2017-06-22T07:18:48.868Z,978.2
2017-06-22T07:19:51.632Z,978.2
2017-06-22T07:20:54.231Z,978.3
2017-06-22T07:21:56.825Z,978.2
2017-06-22T07:22:59.518Z,978.3
2017-06-22T07:24:02.257Z,978.4
2017-06-22T07:25:04.972Z,978.3
2017-06-22T07:26:07.652Z,978.4
2017-06-22T07:27:10.870Z,978.4
2017-06-22T07:28:13.449Z,978.3
2017-06-22T07:29:16.055Z,978.3
2017-06-22T07:30:18.724Z,978.3
2017-06-22T07:31:21.584Z,978.3
2017-06-22T07:32:24.159Z,978.3
2017-06-22T07:33:26.892Z,978.3
2017-06-22T07:34:29.675Z,978.2
2017-06-22T07:35:32.426Z,978.2
2017-06-22T07:36:35.039Z,978.2
2017-06-22T07:37:37.836Z,978.3
2017-06-22T07:38:40.550Z,978.2
2017-06-22T07:39:43.328Z,978.3
2017-06-22T07:40:46.054Z,978.4
2017-06-22T07:41:48.800Z,978.3
2017-06-22T07:42:52.036Z,978.2
2017-06-22T07:43:54.673Z,978.3
2017-06-22T07:44:57.256Z,978.1
2017-06-22T07:45:59.893Z,978.3
2017-06-22T07:47:02.721Z,978.2
2017-06-22T07:48:05.381Z,978.2
2017-06-22T07:49:08.058Z,978.3
2017-06-22T07:50:10.765Z,978.3
2017-06-22T07:51:13.402Z,978.2
2017-06-22T07:52:16.020Z,977.9
2017-06-22T07:53:18.885Z,978.1
2017-06-22T07:54:21.609Z,978.2
2017-06-22T07:55:24.244Z,977.8
2017-06-22T07:56:26.889Z,978.1
2017-06-22T07:57:29.545Z,978.2
2017-06-22T07:58:32.314Z,978.2
2017-06-22T07:59:35.249Z,978
2017-06-22T08:00:37.896Z,978
2017-06-22T08:01:40.692Z,978
2017-06-22T08:02:43.473Z,978.1
2017-06-22T08:03:51.338Z,977.7
2017-06-22T08:04:54.084Z,978
2017-06-22T08:05:56.788Z,978.1
2017-06-22T08:06:59.541Z,978.1
2017-06-22T08:08:02.390Z,977.9
2017-06-22T08:09:05.170Z,978
2017-06-22T08:10:07.964Z,978
2017-06-22T08:11:10.738Z,977.8
2017-06-22T08:12:13.906Z,978
2017-06-22T08:13:16.610Z,977.9
2017-06-22T08:14:19.381Z,978
2017-06-22T08:15:22.095Z,977.9
2017-06-22T08:16:24.807Z,977.9
2017-06-22T08:17:27.550Z,978
2017-06-22T08:18:30.300Z,978
2017-06-22T08:19:33.124Z,977.9
2017-06-22T08:20:35.999Z,977.8
2017-06-22T08:21:38.727Z,977.9
2017-06-22T08:22:41.531Z,977.9
2017-06-22T08:23:44.257Z,977.9
2017-06-22T08:24:46.897Z,977.9
2017-06-22T08:25:49.666Z,977.8
2017-06-22T08:26:52.430Z,977.8
2017-06-22T08:27:55.281Z,977.8
2017-06-22T08:28:57.887Z,977.8
2017-06-22T08:30:00.710Z,977.7
2017-06-22T08:31:03.526Z,977.8
2017-06-22T08:32:06.169Z,977.8
2017-06-22T08:33:08.903Z,977.8
2017-06-22T08:34:11.730Z,977.9
2017-06-22T08:35:14.404Z,977.8
2017-06-22T08:36:17.062Z,977.6
2017-06-22T08:37:19.721Z,977.8
2017-06-22T08:38:22.459Z,977.8
2017-06-22T08:39:25.088Z,977.5
2017-06-22T08:40:27.762Z,977.8
2017-06-22T08:41:31.484Z,977.8
2017-06-22T08:42:34.333Z,977.8
2017-06-22T08:43:37.090Z,977.8
2017-06-22T08:44:39.836Z,977.8
2017-06-22T08:45:42.637Z,977.7
2017-06-22T08:46:45.258Z,977.8
2017-06-22T08:47:49.362Z,977.8
2017-06-22T08:48:52.198Z,977.7
2017-06-22T08:49:57.326Z,977.7
2017-06-22T08:51:00.136Z,977.8
2017-06-22T08:52:03.048Z,977.8
2017-06-22T08:53:05.701Z,977.8
2017-06-22T08:54:09.080Z,977.5
2017-06-22T08:55:19.711Z,977.8
2017-06-22T08:56:22.635Z,977.9
2017-06-22T08:57:25.389Z,977.8
2017-06-22T08:58:27.949Z,977.7
2017-06-22T08:59:30.889Z,977.7
2017-06-22T09:00:38.569Z,977.8
2017-06-22T09:01:41.478Z,977.7
2017-06-22T09:02:44.201Z,977.8
2017-06-22T09:03:46.967Z,977.7
2017-06-22T09:04:49.712Z,977.7
2017-06-22T09:05:58.450Z,977.7
2017-06-22T09:07:03.580Z,977.8
2017-06-22T09:08:06.365Z,977.8
2017-06-22T09:09:09.129Z,977.6
2017-06-22T09:10:11.945Z,977.7
2017-06-22T09:11:19.939Z,977.4
2017-06-22T09:12:28.204Z,977.5
2017-06-22T09:13:30.972Z,977.7
2017-06-22T09:14:33.772Z,977.7
2017-06-22T09:15:36.471Z,977.6
2017-06-22T09:16:39.098Z,977.6
2017-06-22T09:17:41.873Z,977.7
2017-06-22T09:18:44.586Z,977.7
2017-06-22T09:19:47.294Z,977.3
2017-06-22T09:20:49.987Z,977.6
2017-06-22T09:21:52.755Z,977.6
2017-06-22T09:22:55.434Z,977.6
2017-06-22T09:23:58.010Z,977.5
2017-06-22T09:25:00.929Z,977.5
2017-06-22T09:26:03.932Z,977.5
2017-06-22T09:27:06.990Z,977.5
2017-06-22T09:28:10.083Z,977.2
2017-06-22T09:29:12.769Z,977.4
2017-06-22T09:30:15.498Z,977.5
2017-06-22T09:31:18.172Z,977.4
2017-06-22T09:32:21.598Z,977.2
2017-06-22T09:33:24.323Z,977.4
2017-06-22T09:34:27.000Z,977.4
2017-06-22T09:35:29.666Z,977.4
2017-06-22T09:36:32.517Z,977.4
2017-06-22T09:37:35.416Z,977.3
2017-06-22T09:38:38.248Z,977.3
2017-06-22T09:39:41.174Z,977.3
2017-06-22T09:40:43.961Z,977.3
2017-06-22T09:41:46.644Z,977.3
2017-06-22T09:42:49.400Z,977.2
2017-06-22T09:43:52.325Z,977.3
2017-06-22T09:44:54.949Z,977.2
2017-06-22T09:45:57.635Z,977.3
2017-06-22T09:47:00.503Z,977.2
2017-06-22T09:48:03.494Z,976.9
2017-06-22T09:49:06.389Z,977.2
2017-06-22T09:50:09.296Z,977.3
2017-06-22T09:51:12.263Z,977.2
2017-06-22T09:52:15.841Z,976.7
2017-06-22T09:53:18.546Z,977.2
2017-06-22T09:54:21.308Z,977
2017-06-22T09:55:25.198Z,977.2
2017-06-22T09:56:27.761Z,977.2
2017-06-22T09:57:30.432Z,977.1
2017-06-22T09:58:33.329Z,977.1
2017-06-22T09:59:36.080Z,977
2017-06-22T10:00:38.710Z,977
2017-06-22T10:01:41.554Z,976.9
2017-06-22T10:02:44.609Z,976.9
2017-06-22T10:03:47.360Z,976.9
2017-06-22T10:04:50.030Z,976.9
2017-06-22T10:05:55.749Z,976.8
2017-06-22T10:06:59.829Z,976.9
2017-06-22T10:08:02.659Z,977
2017-06-22T10:09:05.335Z,976.9
2017-06-22T10:10:08.293Z,976.9
2017-06-22T10:11:11.266Z,976.5
2017-06-22T10:12:14.067Z,976.7
2017-06-22T10:13:16.707Z,976.8
2017-06-22T10:14:19.339Z,976.8
2017-06-22T10:15:22.182Z,976.7
2017-06-22T10:16:25.009Z,976.8
2017-06-22T10:17:27.634Z,976.8
2017-06-22T10:18:30.400Z,976.9
2017-06-22T10:19:33.226Z,976.8
2017-06-22T10:20:36.191Z,976.8
2017-06-22T10:21:44.794Z,976.8
2017-06-22T10:22:47.523Z,976.8
2017-06-22T10:23:58.601Z,976.8
2017-06-22T10:25:01.661Z,976.8
2017-06-22T10:26:04.409Z,976.7
2017-06-22T10:27:12.738Z,976.3
2017-06-22T10:28:15.537Z,976.6
2017-06-22T10:29:18.202Z,976.4
2017-06-22T10:30:21.220Z,976.5
2017-06-22T10:31:23.887Z,976.6
2017-06-22T10:32:27.313Z,976.3
2017-06-22T10:33:30.069Z,976.5
2017-06-22T10:34:32.849Z,976.4
2017-06-22T10:35:35.509Z,976.4
2017-06-22T10:36:38.484Z,976.4
2017-06-22T10:37:41.386Z,976.3
2017-06-22T10:38:44.049Z,976.3
2017-06-22T10:39:46.786Z,976.4
2017-06-22T10:40:49.442Z,976.3
2017-06-22T10:41:52.334Z,976.4
2017-06-22T10:42:55.105Z,976.4
2017-06-22T10:43:57.908Z,976.4
2017-06-22T10:45:00.917Z,976.3
2017-06-22T10:46:03.731Z,976.2
2017-06-22T10:47:06.421Z,976.2
2017-06-22T10:48:09.093Z,976.2
2017-06-22T10:49:11.810Z,976.3
2017-06-22T10:50:14.550Z,976.2
2017-06-22T10:51:17.370Z,976.1
2017-06-22T10:52:20.333Z,976.1
2017-06-22T10:53:23.351Z,976.1
2017-06-22T10:54:26.369Z,976
2017-06-22T10:55:29.423Z,976
2017-06-22T10:56:32.274Z,976
2017-06-22T10:57:35.209Z,976
2017-06-22T10:58:38.176Z,976
2017-06-22T10:59:41.017Z,976
2017-06-22T11:00:44.289Z,976
2017-06-22T11:01:47.295Z,976
2017-06-22T11:02:50.255Z,976
2017-06-22T11:03:54.696Z,975.9
2017-06-22T11:04:57.953Z,975.9
2017-06-22T11:06:00.885Z,975.9
2017-06-22T11:07:04.321Z,975.9
2017-06-22T11:08:07.344Z,975.8
2017-06-22T11:09:10.243Z,975.8
2017-06-22T11:10:13.164Z,975.8
2017-06-22T11:11:15.980Z,975.8
2017-06-22T11:12:19.088Z,975.8
2017-06-22T11:13:23.122Z,975.8
2017-06-22T11:14:26.307Z,975.8
2017-06-22T11:15:29.197Z,975.8
2017-06-22T11:16:32.183Z,975.8
2017-06-22T11:17:35.124Z,975.7
2017-06-22T11:18:37.990Z,975.7
2017-06-22T11:19:40.754Z,975.7
2017-06-22T11:20:43.685Z,975.9
2017-06-22T11:21:46.530Z,975.8
2017-06-22T11:22:49.376Z,975.8
2017-06-22T11:23:52.962Z,975.4
2017-06-22T11:24:55.693Z,975.8
2017-06-22T11:25:58.530Z,975.8
2017-06-22T11:27:02.224Z,975.7
2017-06-22T11:28:05.076Z,975.7
2017-06-22T11:29:08.548Z,975.7
2017-06-22T11:30:11.422Z,975.6
2017-06-22T11:31:14.181Z,975.6
2017-06-22T11:32:17.140Z,975.7
2017-06-22T11:33:20.015Z,975.7
2017-06-22T11:34:22.765Z,975.7
2017-06-22T11:35:25.524Z,975.3
2017-06-22T11:36:28.350Z,975.6
2017-06-22T11:37:35.742Z,975.6
2017-06-22T11:38:38.615Z,975.6
2017-06-22T11:39:41.513Z,975.6
2017-06-22T11:40:44.257Z,975.5
2017-06-22T11:41:47.108Z,975.3
2017-06-22T11:42:49.833Z,975.5
2017-06-22T11:43:52.906Z,975.5
2017-06-22T11:44:55.704Z,975.5
2017-06-22T11:45:58.524Z,975.5
2017-06-22T11:47:01.511Z,975.5
2017-06-22T11:48:04.348Z,975.4
2017-06-22T11:49:07.226Z,975.5
2017-06-22T11:50:09.991Z,975.5
2017-06-22T11:51:12.976Z,975.4
2017-06-22T11:52:16.009Z,975.4
2017-06-22T11:53:18.925Z,975.4
2017-06-22T11:54:21.956Z,975.1
2017-06-22T11:55:24.803Z,975.3
2017-06-22T11:56:28.225Z,975.4
2017-06-22T11:57:31.202Z,975.4
2017-06-22T11:58:34.105Z,975.4
2017-06-22T11:59:37.117Z,975.4
2017-06-22T12:00:40.012Z,975.4
2017-06-22T12:01:43.036Z,975.4
2017-06-22T12:02:45.850Z,975.3
2017-06-22T12:03:48.635Z,975.5
2017-06-22T12:04:51.729Z,975.1
2017-06-22T12:05:54.543Z,975.4
2017-06-22T12:06:57.351Z,975.3
2017-06-22T12:08:00.294Z,975
2017-06-22T12:09:03.286Z,975
2017-06-22T12:10:06.139Z,975.4
2017-06-22T12:11:09.028Z,975.3
2017-06-22T12:12:12.092Z,975.3
2017-06-22T12:13:15.074Z,975.3
2017-06-22T12:14:17.921Z,975.2
2017-06-22T12:15:20.874Z,975.1
2017-06-22T12:16:24.102Z,975.3
2017-06-22T12:17:27.831Z,975.2
2017-06-22T12:18:30.727Z,975.1
2017-06-22T12:19:33.852Z,975.2
2017-06-22T12:20:36.778Z,975.1
2017-06-22T12:21:40.625Z,975.1
2017-06-22T12:22:43.700Z,975.1
2017-06-22T12:23:46.584Z,975.2
2017-06-22T12:24:49.409Z,975.3
2017-06-22T12:25:52.372Z,975.2
2017-06-22T12:26:55.180Z,975.2
2017-06-22T12:27:58.040Z,974.9
2017-06-22T12:29:00.921Z,975.1
2017-06-22T12:30:03.671Z,975
2017-06-22T12:31:06.640Z,975.3
2017-06-22T12:32:09.443Z,975.1
2017-06-22T12:34:25.541Z,975.1
2017-06-22T12:35:28.818Z,975.1
2017-06-22T12:36:31.813Z,975.1
2017-06-22T12:37:34.817Z,975.1
2017-06-22T12:38:38.426Z,975
2017-06-22T12:39:41.510Z,975.1
2017-06-22T12:40:44.575Z,975
2017-06-22T12:41:47.577Z,975
2017-06-22T12:42:50.631Z,975
2017-06-22T12:43:53.568Z,974.8
2017-06-22T12:44:56.358Z,974.9
2017-06-22T12:45:59.144Z,974.9
2017-06-22T12:47:01.978Z,974.7
2017-06-22T12:48:04.668Z,974.9
2017-06-22T12:49:07.641Z,974.7
2017-06-22T12:50:10.492Z,974.9
2017-06-22T12:51:13.362Z,974.9
2017-06-22T12:52:16.405Z,974.9
2017-06-22T12:53:19.197Z,974.9
2017-06-22T12:54:22.250Z,974.8
2017-06-22T12:55:25.132Z,974.8
2017-06-22T12:56:27.864Z,974.7
2017-06-22T12:57:30.887Z,974.4
2017-06-22T12:58:33.730Z,974.5
2017-06-22T12:59:36.558Z,974.4
2017-06-22T13:00:39.321Z,974.5
2017-06-22T13:01:42.309Z,974.4
2017-06-22T13:02:45.147Z,974.5
2017-06-22T13:03:47.870Z,974.4
2017-06-22T13:04:50.798Z,974.5
2017-06-22T13:05:56.062Z,974.5
2017-06-22T13:06:58.987Z,974.5
2017-06-22T13:08:02.002Z,974.4
2017-06-22T13:09:05.049Z,974.4
2017-06-22T13:10:07.828Z,974.3
2017-06-22T13:11:10.785Z,974.6
2017-06-22T13:12:13.672Z,974.4
2017-06-22T13:13:16.446Z,974.4
2017-06-22T13:14:19.265Z,974.4
2017-06-22T13:15:22.116Z,974.4
2017-06-22T13:16:24.990Z,974.4
2017-06-22T13:17:27.708Z,974.4
2017-06-22T13:18:30.374Z,974.4
2017-06-22T13:19:33.228Z,974.4
2017-06-22T13:20:35.914Z,974.3
2017-06-22T13:21:38.655Z,974.2
2017-06-22T13:22:41.406Z,974.3
2017-06-22T13:23:44.073Z,974.2
2017-06-22T13:24:46.883Z,974.2
2017-06-22T13:25:49.649Z,974.1
2017-06-22T13:26:52.399Z,974
2017-06-22T13:27:55.138Z,974.1
2017-06-22T13:28:57.850Z,974
2017-06-22T13:30:01.826Z,974
2017-06-22T13:31:05.128Z,973.7
2017-06-22T13:32:07.905Z,973.9
2017-06-22T13:33:10.626Z,973.8
2017-06-22T13:34:13.804Z,973.8
2017-06-22T13:35:16.579Z,973.7
2017-06-22T13:36:19.287Z,973.6